Terminal Aerodrome Forecast
Issued by NWS Tulsa, OK

Home | Current Version | Previous Version | Text Only | Print | Product List | Glossary On
Versions: 1 2 3 4 5 6 7 8 9 10 11 12 13 14 15 16
000
FTUS44 KTSA 202027 AAB
TAFFSM
TAF AMD
KFSM 202027Z 2020/2118 30015G25KT 3SM RA BR BKN040
      TEMPO 2020/2024 1SM +TSRA OVC015CB
     FM210000 33016G25KT 4SM -RA BR OVC007
     FM210600 33013KT P6SM VCSH OVC015=

USA.gov is the U.S. government's official web portal to all federal, state and local government web resources and services.